Time;durP1;ratioP1;P1;durP2;ratioP2;P2;SDS_P1;SDS_P2;PMS_P1;PMS_P2;Temp;Humidity;BMP_temperature;BMP_pressure;BME280_temperature;BME280_humidity;BME280_pressure;Samples;Min_cycle;Max_cycle;Signal;HPM_P1;HPM_P2
2022/11/02 00:04:02;;;;;;;;;;;;;;;19.87;50.63;96240.38;10542435;28;1906;-52
2022/11/02 00:09:03;;;;;;;;;;;;;;;19.85;50.84;96244.31;10538462;28;1753;-52
2022/11/02 00:14:05;;;;;;;;;;;;;;;19.86;50.66;96240.66;10538410;28;793;-52
2022/11/02 00:19:05;;;;;;;;;;;;;;;19.87;50.61;96239.59;10537962;28;1883;-51
2022/11/02 00:24:06;;;;;;;;;;;;;;;19.86;50.78;96244.09;10537820;28;1965;-51
2022/11/02 00:29:06;;;;;;;;;;;;;;;19.83;50.65;96239.31;10564181;27;1429;-52
2022/11/02 00:34:07;;;;;;;;;;;;;;;19.84;50.84;96243.56;10537231;28;1224;-51
2022/11/02 00:39:07;;;;;;;;;;;;;;;19.86;50.70;96251.19;10528314;28;1690;-53
2022/11/02 00:44:07;;;;;;;;;;;;;;;19.84;50.69;96261.97;10543001;28;1963;-53
2022/11/02 00:49:07;;;;;;;;;;;;;;;19.83;50.76;96259.56;10531843;28;1647;-53
2022/11/02 00:54:08;;;;;;;;;;;;;;;19.85;50.49;96254.84;10531866;28;1647;-47
2022/11/02 00:59:08;;;;;;;;;;;;;;;19.83;50.72;96259.56;10530949;28;1393;-53
2022/11/02 01:04:08;;;;;;;;;;;;;;;19.82;50.63;96258.00;10536422;28;1964;-52
2022/11/02 01:09:09;;;;;;;;;;;;;;;19.81;50.79;96267.72;10534357;28;1798;-53
2022/11/02 01:14:13;;;;;;;;;;;;;;;19.83;50.42;96275.34;10535671;28;907;-51
2022/11/02 01:19:14;;;;;;;;;;;;;;;19.82;50.83;96271.16;10534777;28;1643;-53
2022/11/02 01:24:14;;;;;;;;;;;;;;;19.83;50.64;96273.53;10535106;28;1902;-52
2022/11/02 01:29:15;;;;;;;;;;;;;;;19.83;50.70;96275.34;10532858;28;1682;-52
2022/11/02 01:34:15;;;;;;;;;;;;;;;19.82;50.50;96266.69;10533890;28;1648;-53
2022/11/02 01:39:16;;;;;;;;;;;;;;;19.81;50.77;96272.19;10533336;28;1729;-52
2022/11/02 01:44:25;;;;;;;;;;;;;;;19.80;50.60;96270.63;10528243;28;1964;-50
2022/11/02 01:49:25;;;;;;;;;;;;;;;19.81;50.65;96272.19;10528095;28;1101;-50
2022/11/02 01:54:26;;;;;;;;;;;;;;;19.82;50.56;96279.03;10530133;28;1607;-50
2022/11/02 01:59:27;;;;;;;;;;;;;;;19.80;50.62;96279.31;10528084;28;1441;-52
2022/11/02 02:04:28;;;;;;;;;;;;;;;19.78;50.49;96272.72;10516753;28;1906;-51
2022/11/02 02:09:28;;;;;;;;;;;;;;;19.78;50.65;96268.25;10535366;28;1651;-52
2022/11/02 02:14:28;;;;;;;;;;;;;;;19.79;50.50;96274.28;10539403;28;1802;-50
2022/11/02 02:19:44;;;;;;;;;;;;;;;19.78;50.61;96270.09;10535924;28;1160;-52
2022/11/02 02:24:44;;;;;;;;;;;;;;;19.81;50.67;96277.44;10533555;28;1902;-54
2022/11/02 02:30:00;;;;;;;;;;;;;;;19.77;50.73;96279.81;10537265;28;1555;-48
2022/11/02 02:35:12;;;;;;;;;;;;;;;19.77;50.48;96286.91;10540019;28;1512;-50
2022/11/02 02:40:20;;;;;;;;;;;;;;;19.78;50.72;96288.50;10540483;28;1077;-54
2022/11/02 02:45:29;;;;;;;;;;;;;;;19.77;50.62;96286.91;10543475;28;1910;-49
2022/11/02 02:50:30;;;;;;;;;;;;;;;19.77;50.28;96292.16;10542926;28;1184;-51
2022/11/02 02:55:33;;;;;;;;;;;;;;;19.77;50.72;96295.59;10535775;28;1607;-51
2022/11/02 03:00:33;;;;;;;;;;;;;;;19.77;50.59;96294.78;10545190;28;1374;-51
2022/11/02 03:05:34;;;;;;;;;;;;;;;19.75;50.47;96295.06;10540076;28;1905;-53
2022/11/02 03:10:41;;;;;;;;;;;;;;;19.76;50.63;96295.84;10543506;28;1136;-54
2022/11/02 03:15:48;;;;;;;;;;;;;;;19.76;50.58;96306.38;10538377;28;1694;-52
2022/11/02 03:20:54;;;;;;;;;;;;;;;19.74;50.49;96308.47;10541229;28;1100;-52
2022/11/02 03:25:54;;;;;;;;;;;;;;;19.75;50.69;96317.94;10533596;28;1901;-53
2022/11/02 03:30:57;;;;;;;;;;;;;;;19.75;50.48;96320.56;10535135;28;1548;-49
2022/11/02 03:36:01;;;;;;;;;;;;;;;19.74;50.44;96325.03;10538408;28;1129;-52
2022/11/02 03:41:01;;;;;;;;;;;;;;;19.74;50.35;96329.50;10532756;28;1619;-51
2022/11/02 03:46:02;;;;;;;;;;;;;;;19.73;50.42;96328.72;10537800;28;1906;-52
2022/11/02 03:51:06;;;;;;;;;;;;;;;19.73;50.53;96333.16;10537891;28;1084;-52
2022/11/02 03:56:07;;;;;;;;;;;;;;;19.74;50.67;96335.53;10528771;28;1686;-52
2022/11/02 04:01:08;;;;;;;;;;;;;;;19.72;50.63;96340.25;10532014;28;1468;-51
2022/11/02 04:06:08;;;;;;;;;;;;;;;19.73;50.46;96348.97;10534334;28;1905;-47
2022/11/02 04:16:27;;;;;;;;;;;;;;;19.71;50.56;96353.69;10531506;28;1659;-52
2022/11/02 04:21:28;;;;;;;;;;;;;;;19.72;50.54;96350.00;10539175;28;2295;-52
2022/11/02 04:26:28;;;;;;;;;;;;;;;19.72;50.42;96340.25;10535763;28;1544;-50
2022/11/02 04:31:28;;;;;;;;;;;;;;;19.71;50.43;96340.53;10532060;28;1686;-51
2022/11/02 04:36:29;;;;;;;;;;;;;;;19.72;50.50;96336.88;10530286;28;1508;-52
2022/11/02 04:41:41;;;;;;;;;;;;;;;19.72;50.36;96331.59;10537347;28;2050;-54
2022/11/02 04:46:41;;;;;;;;;;;;;;;19.71;50.61;96325.53;10535451;28;1679;-51
2022/11/02 04:51:42;;;;;;;;;;;;;;;19.71;50.52;96324.75;10536657;28;1100;-48
2022/11/02 04:56:42;;;;;;;;;;;;;;;19.72;50.28;96326.34;10534764;28;1663;-51
2022/11/02 05:01:42;;;;;;;;;;;;;;;19.69;50.63;96321.56;10531864;28;1971;-53
2022/11/02 05:06:43;;;;;;;;;;;;;;;19.71;50.30;96330.00;10527935;28;1709;-54
2022/11/02 05:11:43;;;;;;;;;;;;;;;19.70;50.60;96336.31;10536056;28;1160;-52
2022/11/02 05:16:44;;;;;;;;;;;;;;;19.69;50.51;96338.16;10532336;28;1682;-53
2022/11/02 05:21:44;;;;;;;;;;;;;;;19.70;50.43;96325.81;10536529;28;1909;-52
2022/11/02 05:26:46;;;;;;;;;;;;;;;19.70;50.35;96334.47;10527862;28;1650;-51
2022/11/02 05:31:46;;;;;;;;;;;;;;;19.70;50.67;96331.06;10535043;28;1185;-51
2022/11/02 05:36:47;;;;;;;;;;;;;;;19.69;50.80;96332.09;10534641;28;1504;-51
2022/11/02 05:41:47;;;;;;;;;;;;;;;19.68;50.73;96333.16;10535737;28;1988;-48
2022/11/02 05:46:47;;;;;;;;;;;;;;;19.69;50.41;96334.72;10542126;28;1775;-52
2022/11/02 05:51:48;;;;;;;;;;;;;;;19.68;50.67;96339.19;10546939;28;968;-50
2022/11/02 05:56:48;;;;;;;;;;;;;;;19.68;50.17;96341.06;10550644;28;1608;-52
2022/11/02 06:01:48;;;;;;;;;;;;;;;19.67;50.76;96347.34;10545456;28;1911;-51
2022/11/02 06:06:48;;;;;;;;;;;;;;;19.67;50.66;96355.22;10540071;28;1608;-52
2022/11/02 06:11:49;;;;;;;;;;;;;;;19.67;50.63;96365.75;10543559;28;1143;-50
2022/11/02 06:16:49;;;;;;;;;;;;;;;19.67;50.46;96371.81;10533845;28;1698;-50
2022/11/02 06:21:49;;;;;;;;;;;;;;;19.67;50.67;96374.44;10544416;28;1973;-53
2022/11/02 06:26:50;;;;;;;;;;;;;;;19.66;50.57;96372.84;10539132;28;1575;-53
2022/11/02 06:31:50;;;;;;;;;;;;;;;19.67;50.23;96379.69;10538741;28;1124;-52
2022/11/02 06:36:50;;;;;;;;;;;;;;;19.68;50.60;96385.75;10540123;28;1441;-48
2022/11/02 06:41:50;;;;;;;;;;;;;;;19.67;50.44;96397.31;10541214;28;1976;-52
2022/11/02 06:46:51;;;;;;;;;;;;;;;19.67;50.53;96397.31;10538145;28;1603;-53
2022/11/02 06:51:51;;;;;;;;;;;;;;;19.65;50.38;96400.19;10540671;28;1627;-51
2022/11/02 06:56:51;;;;;;;;;;;;;;;19.67;50.38;96413.09;10535337;28;1406;-51
2022/11/02 07:01:52;;;;;;;;;;;;;;;19.65;50.66;96418.63;10538177;28;1901;-48
2022/11/02 07:06:53;;;;;;;;;;;;;;;19.66;50.61;96414.16;10539596;28;1662;-47
2022/11/02 07:11:53;;;;;;;;;;;;;;;19.64;50.67;96417.00;10540962;28;1139;-50
2022/11/02 07:16:54;;;;;;;;;;;;;;;19.66;50.23;96403.63;10538580;28;1656;-48
2022/11/02 07:21:54;;;;;;;;;;;;;;;19.65;50.58;96415.97;10539802;28;1964;-52
2022/11/02 07:26:54;;;;;;;;;;;;;;;19.65;50.27;96415.97;10530367;28;1737;-53
2022/11/02 07:31:55;;;;;;;;;;;;;;;19.67;50.61;96413.09;10539694;28;1148;-53
2022/11/02 07:36:55;;;;;;;;;;;;;;;19.67;50.48;96415.72;10532351;28;1504;-53
2022/11/02 07:41:55;;;;;;;;;;;;;;;19.67;50.38;96418.34;10540400;28;1906;-52
2022/11/02 07:46:55;;;;;;;;;;;;;;;19.67;50.22;96424.41;10530849;28;1599;-47
2022/11/02 07:51:56;;;;;;;;;;;;;;;19.69;50.38;96409.16;10537377;28;1658;-48
2022/11/02 07:56:56;;;;;;;;;;;;;;;19.69;50.23;96426.78;10533606;28;1477;-50
2022/11/02 08:01:56;;;;;;;;;;;;;;;19.72;50.50;96423.66;10528177;28;1964;-50
2022/11/02 08:06:57;;;;;;;;;;;;;;;19.72;50.55;96429.69;10536044;28;1722;-52
2022/11/02 08:11:57;;;;;;;;;;;;;;;19.70;50.65;96438.91;10538694;28;1061;-48
2022/11/02 08:16:57;;;;;;;;;;;;;;;19.69;50.65;96438.09;10533442;28;1596;-51
2022/11/02 08:21:58;;;;;;;;;;;;;;;19.70;50.78;96431.00;10538177;28;1901;-52
2022/11/02 08:26:58;;;;;;;;;;;;;;;19.72;50.87;96437.59;10531224;28;1702;-52
2022/11/02 08:31:58;;;;;;;;;;;;;;;19.75;50.55;96442.38;10535257;28;1116;-51
2022/11/02 08:36:58;;;;;;;;;;;;;;;19.78;50.47;96436.63;10531881;28;1552;-52
2022/11/02 08:41:59;;;;;;;;;;;;;;;19.79;50.45;96447.91;10536328;28;1914;-51
2022/11/02 08:46:59;;;;;;;;;;;;;;;19.75;50.40;96434.47;10532044;28;1599;-51
2022/11/02 08:51:59;;;;;;;;;;;;;;;19.73;50.72;96441.03;10535447;28;1195;-50
2022/11/02 08:56:59;;;;;;;;;;;;;;;19.72;50.63;96442.06;10532930;28;1623;-51
2022/11/02 09:02:00;;;;;;;;;;;;;;;19.73;50.75;96443.66;10533613;28;1902;-51
2022/11/02 09:07:00;;;;;;;;;;;;;;;19.76;50.66;96437.91;10542415;28;1497;-51
2022/11/02 09:12:00;;;;;;;;;;;;;;;19.81;50.43;96441.34;10537181;28;1167;-54
2022/11/02 09:17:00;;;;;;;;;;;;;;;19.82;50.40;96444.78;10538287;28;1639;-51
2022/11/02 09:22:01;;;;;;;;;;;;;;;19.84;50.46;96450.59;10542690;28;1907;-51
2022/11/02 09:27:01;;;;;;;;;;;;;;;19.82;50.32;96455.31;10535230;28;1611;-50
2022/11/02 09:32:01;;;;;;;;;;;;;;;19.82;50.36;96469.25;10537421;28;1136;-50
2022/11/02 09:37:02;;;;;;;;;;;;;;;19.81;50.62;96464.22;10528798;28;1616;-51
2022/11/02 09:42:22;;;;;;;;;;;;;;;19.79;50.68;96469.75;10538019;28;1910;-51
2022/11/02 09:47:22;;;;;;;;;;;;;;;19.75;50.69;96473.13;10537116;28;1656;-49
2022/11/02 09:52:49;;;;;;;;;;;;;;;19.76;50.68;96474.72;10535315;28;952;-50
2022/11/02 09:57:49;;;;;;;;;;;;;;;19.76;50.53;96469.47;10528757;28;1633;-53
2022/11/02 10:02:54;;;;;;;;;;;;;;;19.77;50.33;96471.03;10535386;28;1905;-51
2022/11/02 10:07:57;;;;;;;;;;;;;;;19.74;50.57;96482.84;10535880;28;1678;-51
2022/11/02 10:13:17;;;;;;;;;;;;;;;19.74;50.57;96474.19;10516037;28;1132;-52
2022/11/02 10:18:27;;;;;;;;;;;;;;;19.74;50.59;96485.47;10525186;28;1651;-50
2022/11/02 10:23:34;;;;;;;;;;;;;;;19.78;50.52;96486.59;10534795;28;1910;-51
2022/11/02 10:28:36;;;;;;;;;;;;;;;19.75;50.61;96487.09;10528533;28;1552;-52
2022/11/02 10:33:37;;;;;;;;;;;;;;;19.82;50.40;96489.50;10540392;28;1618;-50
2022/11/02 10:38:49;;;;;;;;;;;;;;;19.81;50.41;96493.16;10534997;28;1671;-50
2022/11/02 10:43:52;;;;;;;;;;;;;;;19.84;50.20;96493.47;10541386;28;1934;-51
2022/11/02 10:49:11;;;;;;;;;;;;;;;19.85;50.25;96489.00;10540645;28;1764;-52
2022/11/02 10:54:13;;;;;;;;;;;;;;;19.78;50.20;96483.16;10541272;28;1010;-52
2022/11/02 10:59:17;;;;;;;;;;;;;;;19.77;50.52;96476.31;10537389;28;1615;-52
2022/11/02 11:04:23;;;;;;;;;;;;;;;19.78;50.08;96470.81;10541180;28;1914;-51
2022/11/02 11:09:24;;;;;;;;;;;;;;;19.83;50.32;96476.09;10539769;28;1607;-52
2022/11/02 11:14:25;;;;;;;;;;;;;;;19.81;50.37;96472.91;10539863;28;964;-50
2022/11/02 11:19:35;;;;;;;;;;;;;;;19.80;50.46;96471.34;10521210;28;1675;-51
2022/11/02 11:24:35;;;;;;;;;;;;;;;19.83;50.40;96465.56;10540476;28;1918;-48
2022/11/02 11:29:37;;;;;;;;;;;;;;;19.75;50.46;96465.22;10530850;28;1449;-51
2022/11/02 11:34:37;;;;;;;;;;;;;;;19.74;50.56;96472.31;10539489;28;1160;-51
2022/11/02 11:39:38;;;;;;;;;;;;;;;19.77;50.58;96466.56;10533756;28;1608;-50
2022/11/02 11:44:42;;;;;;;;;;;;;;;19.77;50.58;96471.03;10531095;28;1914;-52
2022/11/02 11:49:45;;;;;;;;;;;;;;;19.77;50.55;96465.78;10539381;28;1113;-51
2022/11/02 11:54:54;;;;;;;;;;;;;;;19.78;50.58;96470.00;10531518;28;1722;-52
2022/11/02 11:59:58;;;;;;;;;;;;;;;19.77;50.67;96471.03;10533202;28;1473;-51
2022/11/02 12:05:15;;;;;;;;;;;;;;;19.75;50.82;96470.50;10536304;28;1914;-47
2022/11/02 12:10:36;;;;;;;;;;;;;;;19.75;50.74;96458.16;10538642;28;1260;-52
2022/11/02 12:15:47;;;;;;;;;;;;;;;19.74;50.78;96458.41;10531819;28;1643;-53
2022/11/02 12:20:47;;;;;;;;;;;;;;;19.74;50.85;96463.66;10543290;28;1065;-50
2022/11/02 12:25:47;;;;;;;;;;;;;;;19.77;50.72;96453.44;10534671;28;1922;-52
2022/11/02 12:30:52;;;;;;;;;;;;;;;19.80;50.62;96454.75;10535042;28;1500;-49
2022/11/02 12:35:52;;;;;;;;;;;;;;;19.77;50.73;96460.50;10543272;28;1105;-49
2022/11/02 12:41:07;;;;;;;;;;;;;;;19.78;50.79;96451.59;10539411;28;1627;-52
2022/11/02 12:46:10;;;;;;;;;;;;;;;19.79;50.65;96442.66;10534679;28;1975;-51
2022/11/02 12:51:30;;;;;;;;;;;;;;;19.78;50.66;96447.13;10536180;28;1258;-47
2022/11/02 12:56:38;;;;;;;;;;;;;;;19.78;50.68;96435.81;10513091;28;1619;-51
2022/11/02 13:01:41;;;;;;;;;;;;;;;19.79;50.58;96432.13;10529843;28;1541;-53
2022/11/02 13:06:42;;;;;;;;;;;;;;;19.79;50.61;96419.78;10532625;28;1906;-54
2022/11/02 13:11:47;;;;;;;;;;;;;;;19.86;50.25;96428.25;10535609;28;1179;-48
2022/11/02 13:16:49;;;;;;;;;;;;;;;19.89;50.19;96421.66;10533678;28;1611;-51
2022/11/02 13:21:53;;;;;;;;;;;;;;;19.88;50.32;96420.09;10534410;28;1910;-53
2022/11/02 13:26:53;;;;;;;;;;;;;;;19.85;50.22;96424.03;10532099;28;1883;-51
2022/11/02 13:31:57;;;;;;;;;;;;;;;19.83;50.31;96417.41;10535767;28;1200;-51
2022/11/02 13:36:57;;;;;;;;;;;;;;;19.85;50.39;96420.59;10490860;28;1698;-53
2022/11/02 13:41:58;;;;;;;;;;;;;;;19.77;50.36;96413.16;10534216;28;1914;-53
2022/11/02 13:47:04;;;;;;;;;;;;;;;19.78;50.62;96414.75;10528130;28;1571;-54
2022/11/02 13:52:11;;;;;;;;;;;;;;;19.81;50.48;96416.88;10516395;28;1643;-53
2022/11/02 13:57:27;;;;;;;;;;;;;;;19.72;50.49;96411.28;10522382;28;1631;-51
2022/11/02 14:02:27;;;;;;;;;;;;;;;19.77;50.54;96410.53;10560672;28;1909;-52
2022/11/02 14:07:28;;;;;;;;;;;;;;;19.80;50.52;96418.72;10513629;28;1659;-48
2022/11/02 14:12:52;;;;;;;;;;;;;;;19.78;50.47;96409.50;10539404;28;1651;-51
2022/11/02 14:17:52;;;;;;;;;;;;;;;19.78;50.50;96412.94;10542189;28;1579;-50
2022/11/02 14:23:11;;;;;;;;;;;;;;;19.72;50.56;96413.91;10535663;28;1918;-52
2022/11/02 14:28:28;;;;;;;;;;;;;;;19.77;50.47;96405.28;10537510;28;1457;-51
2022/11/02 14:33:38;;;;;;;;;;;;;;;19.74;50.32;96405.78;10533604;28;1152;-52
2022/11/02 14:38:42;;;;;;;;;;;;;;;19.76;50.31;96401.88;10533734;28;1675;-54
2022/11/02 14:44:04;;;;;;;;;;;;;;;19.76;50.53;96395.81;10540199;28;1910;-54
2022/11/02 14:49:05;;;;;;;;;;;;;;;19.74;50.38;96396.03;10541609;28;1215;-51
2022/11/02 14:54:06;;;;;;;;;;;;;;;19.77;50.33;96392.91;10537995;28;1662;-51
2022/11/02 14:59:11;;;;;;;;;;;;;;;19.74;50.58;96392.66;10536939;28;1405;-53
2022/11/02 15:04:11;;;;;;;;;;;;;;;19.78;50.43;96393.72;10539734;28;1969;-54
2022/11/02 15:09:14;;;;;;;;;;;;;;;19.77;50.46;96386.84;10541536;28;1662;-53
2022/11/02 15:14:33;;;;;;;;;;;;;;;19.74;50.52;96382.88;10542282;28;805;-53
2022/11/02 15:19:45;;;;;;;;;;;;;;;19.72;50.57;96382.34;10537069;28;1704;-51
2022/11/02 15:24:45;;;;;;;;;;;;;;;19.78;50.24;96375.31;10551643;28;1977;-51
2022/11/02 15:29:45;;;;;;;;;;;;;;;19.73;50.46;96370.00;10546322;28;1459;-52
2022/11/02 15:34:49;;;;;;;;;;;;;;;19.73;50.20;96377.88;10557107;28;1160;-53
2022/11/02 15:39:49;;;;;;;;;;;;;;;19.72;50.41;96379.72;10539054;28;1906;-51
2022/11/02 15:44:59;;;;;;;;;;;;;;;19.74;50.15;96371.59;10539178;28;1979;-53
2022/11/02 15:49:59;;;;;;;;;;;;;;;19.71;50.40;96382.59;10540798;28;1116;-50
2022/11/02 15:55:14;;;;;;;;;;;;;;;19.73;50.28;96383.16;10534086;28;1556;-49
2022/11/02 16:00:17;;;;;;;;;;;;;;;19.71;50.18;96379.97;10516933;28;1397;-51
2022/11/02 16:05:22;;;;;;;;;;;;;;;19.73;50.06;96381.31;10538214;28;1902;-50
2022/11/02 16:10:29;;;;;;;;;;;;;;;19.70;50.34;96381.03;10530153;28;1105;-48
2022/11/02 16:15:29;;;;;;;;;;;;;;;19.68;50.24;96378.63;10517810;28;1623;-54
2022/11/02 16:20:32;;;;;;;;;;;;;;;19.69;50.35;96376.81;10537454;28;1151;-51
2022/11/02 16:25:45;;;;;;;;;;;;;;;19.68;50.04;96373.38;10532439;28;1965;-50
2022/11/02 16:30:58;;;;;;;;;;;;;;;19.70;50.25;96373.91;10530402;28;1481;-51
2022/11/02 16:36:06;;;;;;;;;;;;;;;19.68;50.26;96378.63;10531797;28;1598;-49
2022/11/02 16:41:06;;;;;;;;;;;;;;;19.68;50.16;96377.88;10568741;27;1143;-51
2022/11/02 16:46:08;;;;;;;;;;;;;;;19.69;50.13;96377.59;10533874;28;1963;-49
2022/11/02 16:51:11;;;;;;;;;;;;;;;19.66;50.26;96377.34;10537002;28;841;-49
2022/11/02 16:56:27;;;;;;;;;;;;;;;19.69;50.13;96379.44;10534288;28;1556;-52
2022/11/02 17:01:37;;;;;;;;;;;;;;;19.70;50.13;96388.94;10531311;28;1433;-49
2022/11/02 17:06:40;;;;;;;;;;;;;;;19.67;50.09;96376.28;10535686;28;1909;-54
2022/11/02 17:11:41;;;;;;;;;;;;;;;19.67;50.24;96378.91;10536854;28;1867;-54
2022/11/02 17:17:01;;;;;;;;;;;;;;;19.65;49.95;96384.41;10528249;28;1599;-52
2022/11/02 17:22:13;;;;;;;;;;;;;;;19.64;50.12;96376.78;10534950;28;1901;-55
2022/11/02 17:27:24;;;;;;;;;;;;;;;19.65;50.01;96384.41;10563035;27;1492;-54
2022/11/02 17:32:24;;;;;;;;;;;;;;;19.65;50.22;96387.06;10526426;28;1114;-52
2022/11/02 17:37:25;;;;;;;;;;;;;;;19.66;49.96;96390.47;10533909;28;1748;-51
2022/11/02 17:47:47;;;;;;;;;;;;;;;19.63;49.94;96377.81;10531657;28;1572;-51
2022/11/02 17:52:55;;;;;;;;;;;;;;;19.64;49.96;96389.94;10530830;28;1687;-54
2022/11/02 17:57:56;;;;;;;;;;;;;;;19.64;50.05;96387.31;10559294;28;1409;-53
2022/11/02 18:02:57;;;;;;;;;;;;;;;19.62;50.10;96381.50;10533631;28;1971;-53
2022/11/02 18:07:58;;;;;;;;;;;;;;;19.63;50.09;96381.25;10534521;28;1612;-52
2022/11/02 18:12:58;;;;;;;;;;;;;;;19.63;50.15;96383.88;10521894;28;1783;-51
2022/11/02 18:17:58;;;;;;;;;;;;;;;19.62;50.10;96368.34;10531327;28;1632;-49
2022/11/02 18:22:59;;;;;;;;;;;;;;;19.61;50.04;96370.19;10537082;28;1910;-53
2022/11/02 18:28:00;;;;;;;;;;;;;;;19.61;50.08;96366.75;10533496;28;1584;-52
2022/11/02 18:33:01;;;;;;;;;;;;;;;19.61;49.92;96356.25;10536465;28;1161;-53
2022/11/02 18:38:01;;;;;;;;;;;;;;;19.61;49.97;96351.78;10529730;28;1865;-51
2022/11/02 18:43:02;;;;;;;;;;;;;;;19.60;50.17;96342.28;10534005;28;1985;-51
2022/11/02 18:48:02;;;;;;;;;;;;;;;19.57;50.05;96329.66;10533621;28;1599;-52
2022/11/02 18:53:03;;;;;;;;;;;;;;;19.60;50.08;96323.13;10537824;28;923;-49
2022/11/02 18:58:03;;;;;;;;;;;;;;;19.57;50.03;96302.56;10527987;28;1623;-53
2022/11/02 19:03:03;;;;;;;;;;;;;;;19.55;49.94;96304.66;10540317;28;1901;-52
2022/11/02 19:13:32;;;;;;;;;;;;;;;19.54;50.01;96297.84;10498790;28;1062;-54
2022/11/02 19:18:33;;;;;;;;;;;;;;;19.54;49.97;96290.72;10536067;28;1749;-51
2022/11/02 19:23:33;;;;;;;;;;;;;;;19.55;50.12;96294.13;10537211;28;1909;-53
2022/11/02 19:28:34;;;;;;;;;;;;;;;19.54;50.12;96292.56;10534843;28;1516;-51
2022/11/02 19:33:34;;;;;;;;;;;;;;;19.53;50.09;96285.72;10539445;28;1057;-53
2022/11/02 19:38:37;;;;;;;;;;;;;;;19.55;50.03;96278.38;10539083;28;1630;-50
2022/11/02 19:43:38;;;;;;;;;;;;;;;19.53;50.06;96272.56;10535480;28;1913;-51
2022/11/02 19:48:38;;;;;;;;;;;;;;;19.52;49.84;96273.59;10539102;28;1191;-54
2022/11/02 19:53:38;;;;;;;;;;;;;;;19.53;50.00;96269.94;10529593;28;1726;-52
2022/11/02 19:58:39;;;;;;;;;;;;;;;19.52;50.04;96263.09;10533918;28;1456;-51
2022/11/02 20:03:40;;;;;;;;;;;;;;;19.51;50.10;96257.06;10537964;28;1902;-51
2022/11/02 20:08:40;;;;;;;;;;;;;;;19.52;49.99;96257.81;10533069;28;1544;-50
2022/11/02 20:13:41;;;;;;;;;;;;;;;19.52;49.96;96252.56;10538480;28;822;-51
2022/11/02 20:18:42;;;;;;;;;;;;;;;19.49;49.81;96252.03;10531636;28;1623;-55
2022/11/02 20:23:42;;;;;;;;;;;;;;;19.49;49.96;96254.66;10537595;28;1934;-52
2022/11/02 20:28:48;;;;;;;;;;;;;;;19.51;49.83;96253.63;10533891;28;1599;-50
2022/11/02 20:33:49;;;;;;;;;;;;;;;19.48;50.07;96236.50;10537623;28;1170;-53
2022/11/02 20:38:50;;;;;;;;;;;;;;;19.48;49.68;96242.56;10529354;28;1801;-50
2022/11/02 20:43:50;;;;;;;;;;;;;;;19.44;49.86;96233.59;10537079;28;1974;-52
2022/11/02 20:48:53;;;;;;;;;;;;;;;19.47;50.01;96230.47;10528425;28;1667;-54
2022/11/02 20:54:03;;;;;;;;;;;;;;;19.46;49.78;96234.16;10536106;28;1612;-52
2022/11/02 20:59:04;;;;;;;;;;;;;;;19.45;49.81;96227.28;10530827;28;1323;-54
2022/11/02 21:04:05;;;;;;;;;;;;;;;19.45;49.86;96224.66;10536282;28;1967;-55
2022/11/02 21:09:05;;;;;;;;;;;;;;;19.44;49.95;96227.56;10533048;28;1540;-50
2022/11/02 21:14:05;;;;;;;;;;;;;;;19.45;49.70;96232.56;10534917;28;1615;-53
2022/11/02 21:19:05;;;;;;;;;;;;;;;19.45;49.74;96218.63;10538733;28;1144;-49
2022/11/02 21:24:08;;;;;;;;;;;;;;;19.46;49.84;96225.47;10538947;28;1971;-51
2022/11/02 21:29:08;;;;;;;;;;;;;;;19.44;49.88;96212.56;10531189;28;1500;-52
2022/11/02 21:34:08;;;;;;;;;;;;;;;19.43;49.91;96216.25;10533959;28;1139;-52
2022/11/02 21:39:09;;;;;;;;;;;;;;;19.42;49.75;96221.75;10532822;28;1608;-51
2022/11/02 21:44:10;;;;;;;;;;;;;;;19.42;49.72;96214.66;10532814;28;1914;-53
2022/11/02 21:49:11;;;;;;;;;;;;;;;19.43;49.69;96218.88;10534166;28;1168;-53
2022/11/02 21:54:12;;;;;;;;;;;;;;;19.42;49.84;96211.25;10512774;28;1587;-53
2022/11/02 21:59:12;;;;;;;;;;;;;;;19.40;49.97;96208.88;10528642;28;1377;-54
2022/11/02 22:04:23;;;;;;;;;;;;;;;19.40;49.87;96201.00;10534601;28;1910;-50
2022/11/02 22:09:24;;;;;;;;;;;;;;;19.40;49.95;96200.19;10532851;28;1663;-51
2022/11/02 22:14:24;;;;;;;;;;;;;;;19.39;49.93;96196.75;10534659;28;801;-52
2022/11/02 22:19:24;;;;;;;;;;;;;;;19.40;49.71;96189.69;10533608;28;1706;-54
2022/11/02 22:24:25;;;;;;;;;;;;;;;19.39;49.91;96196.75;10530169;28;1972;-52
2022/11/02 22:29:25;;;;;;;;;;;;;;;19.38;49.85;96183.88;10535771;28;1465;-55
2022/11/02 22:34:25;;;;;;;;;;;;;;;19.39;49.70;96181.00;10541802;28;1187;-50
2022/11/02 22:39:25;;;;;;;;;;;;;;;19.39;49.87;96170.47;10539433;28;1611;-52
2022/11/02 22:44:26;;;;;;;;;;;;;;;19.37;50.02;96172.56;10541150;28;1909;-52
2022/11/02 22:49:26;;;;;;;;;;;;;;;19.38;49.64;96176.00;10541417;28;1156;-53
2022/11/02 22:54:26;;;;;;;;;;;;;;;19.36;49.83;96176.25;10536899;28;1565;-48
2022/11/02 22:59:27;;;;;;;;;;;;;;;19.37;49.74;96172.56;10536068;28;1497;-53
2022/11/02 23:04:27;;;;;;;;;;;;;;;19.36;49.70;96176.25;10541188;28;1975;-54
2022/11/02 23:09:27;;;;;;;;;;;;;;;19.36;49.71;96160.50;10535199;28;1671;-54
2022/11/02 23:14:28;;;;;;;;;;;;;;;19.36;49.75;96157.84;10541181;28;848;-52
2022/11/02 23:19:28;;;;;;;;;;;;;;;19.37;49.72;96151.53;10535518;28;1592;-50
2022/11/02 23:25:09;;;;;;;;;;;;;;;19.34;49.84;96152.06;10500562;28;1898;-48
2022/11/02 23:40:39;;;;;;;;;;;;;;;19.37;49.55;96130.50;10534051;28;1088;-51
2022/11/02 23:45:40;;;;;;;;;;;;;;;19.35;49.81;96131.84;10534259;28;1943;-51
